sensor_id;sensor_type;location;lat;lon;timestamp;temperature;humidity
30063;DHT22;16889;67.864;24.990;2023-09-18T00:00:50;0.60;99.90
30063;DHT22;16889;67.864;24.990;2023-09-18T00:05:36;0.70;99.90
30063;DHT22;16889;67.864;24.990;2023-09-18T00:10:21;0.70;99.90
30063;DHT22;16889;67.864;24.990;2023-09-18T00:15:08;0.70;99.90
30063;DHT22;16889;67.864;24.990;2023-09-18T00:19:54;0.70;99.90
30063;DHT22;16889;67.864;24.990;2023-09-18T00:24:40;0.70;99.90
30063;DHT22;16889;67.864;24.990;2023-09-18T00:29:26;0.70;99.90
30063;DHT22;16889;67.864;24.990;2023-09-18T00:34:11;0.70;99.90
30063;DHT22;16889;67.864;24.990;2023-09-18T00:38:57;0.70;99.90
30063;DHT22;16889;67.864;24.990;2023-09-18T00:43:43;0.70;99.90
30063;DHT22;16889;67.864;24.990;2023-09-18T00:48:29;0.80;99.90
30063;DHT22;16889;67.864;24.990;2023-09-18T00:53:21;0.80;99.90
30063;DHT22;16889;67.864;24.990;2023-09-18T00:58:07;0.70;99.90
30063;DHT22;16889;67.864;24.990;2023-09-18T01:02:53;0.60;99.90
30063;DHT22;16889;67.864;24.990;2023-09-18T01:07:39;0.70;99.90
30063;DHT22;16889;67.864;24.990;2023-09-18T01:12:55;0.70;99.90
30063;DHT22;16889;67.864;24.990;2023-09-18T01:17:39;0.60;99.90
30063;DHT22;16889;67.864;24.990;2023-09-18T01:22:30;0.50;99.90
30063;DHT22;16889;67.864;24.990;2023-09-18T01:27:17;0.50;99.90
30063;DHT22;16889;67.864;24.990;2023-09-18T01:32:03;0.50;99.90
30063;DHT22;16889;67.864;24.990;2023-09-18T01:36:50;0.40;99.90
30063;DHT22;16889;67.864;24.990;2023-09-18T01:41:37;0.40;99.90
30063;DHT22;16889;67.864;24.990;2023-09-18T01:46:24;0.50;99.90
30063;DHT22;16889;67.864;24.990;2023-09-18T01:51:13;0.40;99.90
30063;DHT22;16889;67.864;24.990;2023-09-18T01:56:00;0.30;99.90
30063;DHT22;16889;67.864;24.990;2023-09-18T02:00:46;0.20;99.90
30063;DHT22;16889;67.864;24.990;2023-09-18T02:05:31;0.30;99.90
30063;DHT22;16889;67.864;24.990;2023-09-18T02:10:18;0.10;99.90
30063;DHT22;16889;67.864;24.990;2023-09-18T02:15:04;0.00;99.90
30063;DHT22;16889;67.864;24.990;2023-09-18T02:19:52;0.10;99.90
30063;DHT22;16889;67.864;24.990;2023-09-18T02:24:38;0.10;99.90
30063;DHT22;16889;67.864;24.990;2023-09-18T02:29:24;0.10;99.90
30063;DHT22;16889;67.864;24.990;2023-09-18T02:34:10;0.10;99.90
30063;DHT22;16889;67.864;24.990;2023-09-18T02:38:56;-0.10;99.90
30063;DHT22;16889;67.864;24.990;2023-09-18T02:43:42;-0.30;99.90
30063;DHT22;16889;67.864;24.990;2023-09-18T02:48:28;-0.20;99.90
30063;DHT22;16889;67.864;24.990;2023-09-18T02:53:19;0.10;99.90
30063;DHT22;16889;67.864;24.990;2023-09-18T02:58:05;-0.20;99.90
30063;DHT22;16889;67.864;24.990;2023-09-18T03:02:51;-0.30;99.90
30063;DHT22;16889;67.864;24.990;2023-09-18T03:07:37;-0.30;99.90
30063;DHT22;16889;67.864;24.990;2023-09-18T03:12:23;-0.20;99.90
30063;DHT22;16889;67.864;24.990;2023-09-18T03:17:09;-0.30;99.90
30063;DHT22;16889;67.864;24.990;2023-09-18T03:21:56;-0.30;99.90
30063;DHT22;16889;67.864;24.990;2023-09-18T03:26:41;-0.40;99.90
30063;DHT22;16889;67.864;24.990;2023-09-18T03:31:27;-0.30;99.90
30063;DHT22;16889;67.864;24.990;2023-09-18T03:36:14;-0.40;99.90
30063;DHT22;16889;67.864;24.990;2023-09-18T03:41:00;-0.30;99.90
30063;DHT22;16889;67.864;24.990;2023-09-18T03:45:46;-0.40;99.90
30063;DHT22;16889;67.864;24.990;2023-09-18T03:50:33;-0.40;99.90
30063;DHT22;16889;67.864;24.990;2023-09-18T03:55:22;-0.40;99.90
30063;DHT22;16889;67.864;24.990;2023-09-18T04:00:08;-0.50;99.90
30063;DHT22;16889;67.864;24.990;2023-09-18T04:04:54;-0.50;99.90
30063;DHT22;16889;67.864;24.990;2023-09-18T04:09:40;-0.50;99.90
30063;DHT22;16889;67.864;24.990;2023-09-18T04:14:26;-0.50;99.90
30063;DHT22;16889;67.864;24.990;2023-09-18T04:19:12;-0.50;99.90
30063;DHT22;16889;67.864;24.990;2023-09-18T04:23:59;-0.60;99.90
30063;DHT22;16889;67.864;24.990;2023-09-18T04:28:45;-0.50;99.90
30063;DHT22;16889;67.864;24.990;2023-09-18T04:33:30;-0.50;99.90
30063;DHT22;16889;67.864;24.990;2023-09-18T04:38:16;-0.40;99.90
30063;DHT22;16889;67.864;24.990;2023-09-18T04:43:04;-0.30;99.90
30063;DHT22;16889;67.864;24.990;2023-09-18T04:47:51;-0.20;99.90
30063;DHT22;16889;67.864;24.990;2023-09-18T04:52:37;-0.20;99.90
30063;DHT22;16889;67.864;24.990;2023-09-18T04:57:23;0.00;99.90
30063;DHT22;16889;67.864;24.990;2023-09-18T05:02:08;0.10;99.90
30063;DHT22;16889;67.864;24.990;2023-09-18T05:06:55;0.30;99.90
30063;DHT22;16889;67.864;24.990;2023-09-18T05:11:41;0.60;99.90
30063;DHT22;16889;67.864;24.990;2023-09-18T05:16:27;0.80;99.90
30063;DHT22;16889;67.864;24.990;2023-09-18T05:21:14;0.90;99.90
30063;DHT22;16889;67.864;24.990;2023-09-18T05:26:00;1.00;99.90
30063;DHT22;16889;67.864;24.990;2023-09-18T05:30:46;1.30;99.90
30063;DHT22;16889;67.864;24.990;2023-09-18T05:35:36;1.80;99.90
30063;DHT22;16889;67.864;24.990;2023-09-18T05:40:22;2.10;99.90
30063;DHT22;16889;67.864;24.990;2023-09-18T05:45:08;2.20;99.90
30063;DHT22;16889;67.864;24.990;2023-09-18T05:49:54;2.40;99.90
30063;DHT22;16889;67.864;24.990;2023-09-18T05:54:40;2.50;99.90
30063;DHT22;16889;67.864;24.990;2023-09-18T05:59:26;2.70;99.90
30063;DHT22;16889;67.864;24.990;2023-09-18T06:04:12;2.90;99.90
30063;DHT22;16889;67.864;24.990;2023-09-18T06:08:58;2.80;99.90
30063;DHT22;16889;67.864;24.990;2023-09-18T06:13:44;2.80;99.90
30063;DHT22;16889;67.864;24.990;2023-09-18T06:18:30;2.90;99.90
30063;DHT22;16889;67.864;24.990;2023-09-18T06:23:16;3.10;99.90
30063;DHT22;16889;67.864;24.990;2023-09-18T06:28:02;3.10;99.90
30063;DHT22;16889;67.864;24.990;2023-09-18T06:32:49;3.10;99.90
30063;DHT22;16889;67.864;24.990;2023-09-18T06:37:34;3.20;99.90
30063;DHT22;16889;67.864;24.990;2023-09-18T06:42:20;3.50;99.90
30063;DHT22;16889;67.864;24.990;2023-09-18T06:47:06;3.60;99.90
30063;DHT22;16889;67.864;24.990;2023-09-18T06:51:52;3.70;99.90
30063;DHT22;16889;67.864;24.990;2023-09-18T06:56:38;3.90;99.90
30063;DHT22;16889;67.864;24.990;2023-09-18T07:01:24;4.20;99.90
30063;DHT22;16889;67.864;24.990;2023-09-18T07:06:11;4.20;99.90
30063;DHT22;16889;67.864;24.990;2023-09-18T07:10:57;4.30;99.90
30063;DHT22;16889;67.864;24.990;2023-09-18T07:15:43;4.20;99.90
30063;DHT22;16889;67.864;24.990;2023-09-18T07:20:29;4.50;99.90
30063;DHT22;16889;67.864;24.990;2023-09-18T07:25:16;4.60;99.90
30063;DHT22;16889;67.864;24.990;2023-09-18T07:30:02;4.80;99.90
30063;DHT22;16889;67.864;24.990;2023-09-18T07:34:49;5.00;99.90
30063;DHT22;16889;67.864;24.990;2023-09-18T07:39:35;5.00;99.90
30063;DHT22;16889;67.864;24.990;2023-09-18T07:44:22;5.10;99.90
30063;DHT22;16889;67.864;24.990;2023-09-18T07:49:08;5.20;99.90
30063;DHT22;16889;67.864;24.990;2023-09-18T07:53:53;5.40;99.90
30063;DHT22;16889;67.864;24.990;2023-09-18T07:58:39;5.60;99.90
30063;DHT22;16889;67.864;24.990;2023-09-18T08:03:26;5.80;99.90
30063;DHT22;16889;67.864;24.990;2023-09-18T08:08:12;5.80;99.90
30063;DHT22;16889;67.864;24.990;2023-09-18T08:12:58;6.00;99.90
30063;DHT22;16889;67.864;24.990;2023-09-18T08:17:44;6.10;99.90
30063;DHT22;16889;67.864;24.990;2023-09-18T08:22:32;6.20;99.90
30063;DHT22;16889;67.864;24.990;2023-09-18T08:27:18;6.10;99.90
30063;DHT22;16889;67.864;24.990;2023-09-18T08:32:04;6.00;99.90
30063;DHT22;16889;67.864;24.990;2023-09-18T08:36:50;5.90;99.90
30063;DHT22;16889;67.864;24.990;2023-09-18T08:41:42;5.80;99.90
30063;DHT22;16889;67.864;24.990;2023-09-18T08:46:28;5.80;99.90
30063;DHT22;16889;67.864;24.990;2023-09-18T08:51:15;5.80;99.90
30063;DHT22;16889;67.864;24.990;2023-09-18T08:56:04;6.00;99.90
30063;DHT22;16889;67.864;24.990;2023-09-18T09:00:50;6.00;99.90
30063;DHT22;16889;67.864;24.990;2023-09-18T09:05:36;6.20;99.90
30063;DHT22;16889;67.864;24.990;2023-09-18T09:10:22;6.30;99.90
30063;DHT22;16889;67.864;24.990;2023-09-18T09:15:08;6.40;99.90
30063;DHT22;16889;67.864;24.990;2023-09-18T09:20:11;6.40;99.90
30063;DHT22;16889;67.864;24.990;2023-09-18T09:24:57;6.60;99.90
30063;DHT22;16889;67.864;24.990;2023-09-18T09:30:00;6.70;99.90
30063;DHT22;16889;67.864;24.990;2023-09-18T09:34:46;6.90;99.90
30063;DHT22;16889;67.864;24.990;2023-09-18T09:39:32;7.10;99.90
30063;DHT22;16889;67.864;24.990;2023-09-18T09:44:20;7.30;99.90
30063;DHT22;16889;67.864;24.990;2023-09-18T09:49:09;7.40;99.90
30063;DHT22;16889;67.864;24.990;2023-09-18T09:53:55;7.50;99.90
30063;DHT22;16889;67.864;24.990;2023-09-18T09:58:41;7.50;99.90
30063;DHT22;16889;67.864;24.990;2023-09-18T10:03:31;7.80;99.90
30063;DHT22;16889;67.864;24.990;2023-09-18T10:08:22;7.90;99.90
30063;DHT22;16889;67.864;24.990;2023-09-18T10:13:36;8.20;99.90
30063;DHT22;16889;67.864;24.990;2023-09-18T10:18:47;8.40;99.90
30063;DHT22;16889;67.864;24.990;2023-09-18T10:29:00;8.80;99.90
30063;DHT22;16889;67.864;24.990;2023-09-18T10:33:49;9.10;99.90
30063;DHT22;16889;67.864;24.990;2023-09-18T10:38:36;9.20;99.90
30063;DHT22;16889;67.864;24.990;2023-09-18T10:43:23;9.20;99.90
30063;DHT22;16889;67.864;24.990;2023-09-18T10:48:09;9.50;99.90
30063;DHT22;16889;67.864;24.990;2023-09-18T10:52:59;9.60;99.90
30063;DHT22;16889;67.864;24.990;2023-09-18T10:57:56;9.70;99.90
30063;DHT22;16889;67.864;24.990;2023-09-18T11:02:43;9.80;99.90
30063;DHT22;16889;67.864;24.990;2023-09-18T11:07:30;9.90;99.90
30063;DHT22;16889;67.864;24.990;2023-09-18T11:12:17;10.20;99.90
30063;DHT22;16889;67.864;24.990;2023-09-18T11:17:03;10.40;99.90
30063;DHT22;16889;67.864;24.990;2023-09-18T11:22:06;10.60;99.90
30063;DHT22;16889;67.864;24.990;2023-09-18T11:26:54;10.90;99.90
30063;DHT22;16889;67.864;24.990;2023-09-18T11:36:29;11.00;99.90
30063;DHT22;16889;67.864;24.990;2023-09-18T11:41:28;11.10;99.90
30063;DHT22;16889;67.864;24.990;2023-09-18T11:46:19;11.20;99.90
30063;DHT22;16889;67.864;24.990;2023-09-18T11:51:06;11.30;99.90
30063;DHT22;16889;67.864;24.990;2023-09-18T11:55:56;11.40;99.90
30063;DHT22;16889;67.864;24.990;2023-09-18T12:00:42;11.40;99.90
30063;DHT22;16889;67.864;24.990;2023-09-18T12:05:32;11.40;99.90
30063;DHT22;16889;67.864;24.990;2023-09-18T12:10:20;11.40;99.90
30063;DHT22;16889;67.864;24.990;2023-09-18T12:15:12;11.40;99.90
30063;DHT22;16889;67.864;24.990;2023-09-18T12:20:00;11.50;99.90
30063;DHT22;16889;67.864;24.990;2023-09-18T12:24:46;11.60;99.90
30063;DHT22;16889;67.864;24.990;2023-09-18T12:29:32;11.60;99.90
30063;DHT22;16889;67.864;24.990;2023-09-18T12:34:19;11.60;99.90
30063;DHT22;16889;67.864;24.990;2023-09-18T12:39:08;11.50;99.90
30063;DHT22;16889;67.864;24.990;2023-09-18T12:43:55;11.50;99.90
30063;DHT22;16889;67.864;24.990;2023-09-18T12:48:41;11.60;99.90
30063;DHT22;16889;67.864;24.990;2023-09-18T12:53:30;11.80;99.90
30063;DHT22;16889;67.864;24.990;2023-09-18T12:58:20;11.90;99.90
30063;DHT22;16889;67.864;24.990;2023-09-18T13:03:06;12.10;99.90
30063;DHT22;16889;67.864;24.990;2023-09-18T13:07:53;12.20;99.90
30063;DHT22;16889;67.864;24.990;2023-09-18T13:12:45;12.20;99.90
30063;DHT22;16889;67.864;24.990;2023-09-18T13:17:42;12.20;99.90
30063;DHT22;16889;67.864;24.990;2023-09-18T13:22:31;12.20;99.90
30063;DHT22;16889;67.864;24.990;2023-09-18T13:27:17;12.00;99.90
30063;DHT22;16889;67.864;24.990;2023-09-18T13:32:06;11.90;99.90
30063;DHT22;16889;67.864;24.990;2023-09-18T13:36:52;11.70;99.90
30063;DHT22;16889;67.864;24.990;2023-09-18T13:41:40;11.50;99.90
30063;DHT22;16889;67.864;24.990;2023-09-18T13:46:29;11.40;99.90
30063;DHT22;16889;67.864;24.990;2023-09-18T13:51:15;11.40;99.90
30063;DHT22;16889;67.864;24.990;2023-09-18T13:56:01;11.40;99.90
30063;DHT22;16889;67.864;24.990;2023-09-18T14:00:48;11.40;99.90
30063;DHT22;16889;67.864;24.990;2023-09-18T14:05:34;11.20;99.90
30063;DHT22;16889;67.864;24.990;2023-09-18T14:10:20;10.80;99.90
30063;DHT22;16889;67.864;24.990;2023-09-18T14:15:08;10.50;99.90
30063;DHT22;16889;67.864;24.990;2023-09-18T14:19:54;10.30;99.90
30063;DHT22;16889;67.864;24.990;2023-09-18T14:24:41;10.10;99.90
30063;DHT22;16889;67.864;24.990;2023-09-18T14:29:26;10.00;99.90
30063;DHT22;16889;67.864;24.990;2023-09-18T14:34:13;9.90;99.90
30063;DHT22;16889;67.864;24.990;2023-09-18T14:39:02;9.70;99.90
30063;DHT22;16889;67.864;24.990;2023-09-18T14:43:48;9.60;99.90
30063;DHT22;16889;67.864;24.990;2023-09-18T14:48:34;9.60;99.90
30063;DHT22;16889;67.864;24.990;2023-09-18T14:53:20;9.50;99.90
30063;DHT22;16889;67.864;24.990;2023-09-18T14:58:06;9.60;99.90
30063;DHT22;16889;67.864;24.990;2023-09-18T15:02:53;9.60;99.90
30063;DHT22;16889;67.864;24.990;2023-09-18T15:07:38;9.40;99.90
30063;DHT22;16889;67.864;24.990;2023-09-18T15:12:24;9.30;99.90
30063;DHT22;16889;67.864;24.990;2023-09-18T15:17:10;9.20;99.90
30063;DHT22;16889;67.864;24.990;2023-09-18T15:21:58;9.10;99.90
30063;DHT22;16889;67.864;24.990;2023-09-18T15:26:44;9.10;99.90
30063;DHT22;16889;67.864;24.990;2023-09-18T15:31:30;9.00;99.90
30063;DHT22;16889;67.864;24.990;2023-09-18T15:36:16;8.90;99.90
30063;DHT22;16889;67.864;24.990;2023-09-18T15:41:01;8.90;99.90
30063;DHT22;16889;67.864;24.990;2023-09-18T15:45:47;8.80;99.90
30063;DHT22;16889;67.864;24.990;2023-09-18T15:50:33;8.70;99.90
30063;DHT22;16889;67.864;24.990;2023-09-18T15:55:19;8.70;99.90
30063;DHT22;16889;67.864;24.990;2023-09-18T16:00:06;8.60;99.90
30063;DHT22;16889;67.864;24.990;2023-09-18T16:04:53;8.50;99.90
30063;DHT22;16889;67.864;24.990;2023-09-18T16:09:39;8.50;99.90
30063;DHT22;16889;67.864;24.990;2023-09-18T16:14:25;8.40;99.90
30063;DHT22;16889;67.864;24.990;2023-09-18T16:19:11;8.30;99.90
30063;DHT22;16889;67.864;24.990;2023-09-18T16:23:57;8.20;99.90
30063;DHT22;16889;67.864;24.990;2023-09-18T16:28:43;8.10;99.90
30063;DHT22;16889;67.864;24.990;2023-09-18T16:33:29;8.00;99.90
30063;DHT22;16889;67.864;24.990;2023-09-18T16:38:15;7.90;99.90
30063;DHT22;16889;67.864;24.990;2023-09-18T16:43:01;7.80;99.90
30063;DHT22;16889;67.864;24.990;2023-09-18T16:47:47;7.70;99.90
30063;DHT22;16889;67.864;24.990;2023-09-18T16:52:33;7.60;99.90
30063;DHT22;16889;67.864;24.990;2023-09-18T16:57:19;7.60;99.90
30063;DHT22;16889;67.864;24.990;2023-09-18T17:02:05;7.50;99.90
30063;DHT22;16889;67.864;24.990;2023-09-18T17:06:54;7.50;99.90
30063;DHT22;16889;67.864;24.990;2023-09-18T17:11:40;7.40;99.90
30063;DHT22;16889;67.864;24.990;2023-09-18T17:16:26;7.40;99.90
30063;DHT22;16889;67.864;24.990;2023-09-18T17:21:12;7.50;99.90
30063;DHT22;16889;67.864;24.990;2023-09-18T17:25:58;7.50;99.90
30063;DHT22;16889;67.864;24.990;2023-09-18T17:30:44;7.60;99.90
30063;DHT22;16889;67.864;24.990;2023-09-18T17:35:32;7.60;99.90
30063;DHT22;16889;67.864;24.990;2023-09-18T17:40:21;7.70;99.90
30063;DHT22;16889;67.864;24.990;2023-09-18T17:45:07;7.60;99.90
30063;DHT22;16889;67.864;24.990;2023-09-18T17:49:53;7.60;99.90
30063;DHT22;16889;67.864;24.990;2023-09-18T17:54:39;7.60;99.90
30063;DHT22;16889;67.864;24.990;2023-09-18T17:59:25;7.60;99.90
30063;DHT22;16889;67.864;24.990;2023-09-18T18:04:11;7.60;99.90
30063;DHT22;16889;67.864;24.990;2023-09-18T18:08:57;7.60;99.90
30063;DHT22;16889;67.864;24.990;2023-09-18T18:13:45;7.60;99.90
30063;DHT22;16889;67.864;24.990;2023-09-18T18:18:31;7.60;99.90
30063;DHT22;16889;67.864;24.990;2023-09-18T18:23:16;7.60;99.90
30063;DHT22;16889;67.864;24.990;2023-09-18T18:28:03;7.60;99.90
30063;DHT22;16889;67.864;24.990;2023-09-18T18:32:49;7.40;99.90
30063;DHT22;16889;67.864;24.990;2023-09-18T18:37:35;7.30;99.90
30063;DHT22;16889;67.864;24.990;2023-09-18T18:42:21;7.20;99.90
30063;DHT22;16889;67.864;24.990;2023-09-18T18:47:06;7.10;99.90
30063;DHT22;16889;67.864;24.990;2023-09-18T18:51:53;7.00;99.90
30063;DHT22;16889;67.864;24.990;2023-09-18T18:56:39;7.00;99.90
30063;DHT22;16889;67.864;24.990;2023-09-18T19:01:25;6.90;99.90
30063;DHT22;16889;67.864;24.990;2023-09-18T19:06:12;6.70;99.90
30063;DHT22;16889;67.864;24.990;2023-09-18T19:11:00;6.70;99.90
30063;DHT22;16889;67.864;24.990;2023-09-18T19:15:47;6.70;99.90
30063;DHT22;16889;67.864;24.990;2023-09-18T19:20:33;6.70;99.90
30063;DHT22;16889;67.864;24.990;2023-09-18T19:25:19;6.70;99.90
30063;DHT22;16889;67.864;24.990;2023-09-18T19:30:07;6.50;99.90
30063;DHT22;16889;67.864;24.990;2023-09-18T19:34:53;6.50;99.90
30063;DHT22;16889;67.864;24.990;2023-09-18T19:39:39;6.50;99.90
30063;DHT22;16889;67.864;24.990;2023-09-18T19:44:25;6.50;99.90
30063;DHT22;16889;67.864;24.990;2023-09-18T19:49:11;6.50;99.90
30063;DHT22;16889;67.864;24.990;2023-09-18T19:53:58;6.60;99.90
30063;DHT22;16889;67.864;24.990;2023-09-18T19:58:44;6.60;99.90
30063;DHT22;16889;67.864;24.990;2023-09-18T20:03:51;6.50;99.90
30063;DHT22;16889;67.864;24.990;2023-09-18T20:08:37;6.40;99.90
30063;DHT22;16889;67.864;24.990;2023-09-18T20:13:23;6.40;99.90
30063;DHT22;16889;67.864;24.990;2023-09-18T20:18:09;6.40;99.90
30063;DHT22;16889;67.864;24.990;2023-09-18T20:22:55;6.50;99.90
30063;DHT22;16889;67.864;24.990;2023-09-18T20:27:41;6.40;99.90
30063;DHT22;16889;67.864;24.990;2023-09-18T20:32:27;6.40;99.90
30063;DHT22;16889;67.864;24.990;2023-09-18T20:37:13;6.40;99.90
30063;DHT22;16889;67.864;24.990;2023-09-18T20:41:59;6.40;99.90
30063;DHT22;16889;67.864;24.990;2023-09-18T20:46:45;6.40;99.90
30063;DHT22;16889;67.864;24.990;2023-09-18T20:51:32;6.50;99.90
30063;DHT22;16889;67.864;24.990;2023-09-18T20:56:19;6.50;99.90
30063;DHT22;16889;67.864;24.990;2023-09-18T21:01:05;6.50;99.90
30063;DHT22;16889;67.864;24.990;2023-09-18T21:05:52;6.40;99.90
30063;DHT22;16889;67.864;24.990;2023-09-18T21:10:41;6.40;99.90
30063;DHT22;16889;67.864;24.990;2023-09-18T21:15:28;6.30;99.90
30063;DHT22;16889;67.864;24.990;2023-09-18T21:20:14;6.20;99.90
30063;DHT22;16889;67.864;24.990;2023-09-18T21:25:00;6.00;99.90
30063;DHT22;16889;67.864;24.990;2023-09-18T21:29:46;6.00;99.90
30063;DHT22;16889;67.864;24.990;2023-09-18T21:34:35;6.00;99.90
30063;DHT22;16889;67.864;24.990;2023-09-18T21:39:21;6.00;99.90
30063;DHT22;16889;67.864;24.990;2023-09-18T21:44:07;6.00;99.90
30063;DHT22;16889;67.864;24.990;2023-09-18T21:48:53;6.10;99.90
30063;DHT22;16889;67.864;24.990;2023-09-18T21:53:38;6.10;99.90
30063;DHT22;16889;67.864;24.990;2023-09-18T21:58:24;6.20;99.90
30063;DHT22;16889;67.864;24.990;2023-09-18T22:03:11;6.30;99.90
30063;DHT22;16889;67.864;24.990;2023-09-18T22:07:57;6.40;99.90
30063;DHT22;16889;67.864;24.990;2023-09-18T22:12:44;6.50;99.90
30063;DHT22;16889;67.864;24.990;2023-09-18T22:17:30;6.60;99.90
30063;DHT22;16889;67.864;24.990;2023-09-18T22:22:16;6.70;99.90
30063;DHT22;16889;67.864;24.990;2023-09-18T22:27:02;6.70;99.90
30063;DHT22;16889;67.864;24.990;2023-09-18T22:31:48;6.80;99.90
30063;DHT22;16889;67.864;24.990;2023-09-18T22:36:35;6.80;99.90
30063;DHT22;16889;67.864;24.990;2023-09-18T22:56:58;6.60;99.90
30063;DHT22;16889;67.864;24.990;2023-09-18T23:01:44;6.50;99.90
30063;DHT22;16889;67.864;24.990;2023-09-18T23:06:30;6.50;99.90
30063;DHT22;16889;67.864;24.990;2023-09-18T23:11:19;6.50;99.90
30063;DHT22;16889;67.864;24.990;2023-09-18T23:16:05;6.50;99.90
30063;DHT22;16889;67.864;24.990;2023-09-18T23:20:51;6.50;99.90
30063;DHT22;16889;67.864;24.990;2023-09-18T23:25:37;6.50;99.90
30063;DHT22;16889;67.864;24.990;2023-09-18T23:30:26;6.50;99.90
30063;DHT22;16889;67.864;24.990;2023-09-18T23:35:15;6.50;99.90
30063;DHT22;16889;67.864;24.990;2023-09-18T23:40:01;6.50;99.90
30063;DHT22;16889;67.864;24.990;2023-09-18T23:44:51;6.50;99.90
30063;DHT22;16889;67.864;24.990;2023-09-18T23:49:37;6.50;99.90
30063;DHT22;16889;67.864;24.990;2023-09-18T23:54:22;6.50;99.90
30063;DHT22;16889;67.864;24.990;2023-09-18T23:59:09;6.40;99.90
